Time;durP1;ratioP1;P1;durP2;ratioP2;P2;SDS_P1;SDS_P2;PMS_P1;PMS_P2;Temp;Humidity;BMP_temperature;BMP_pressure;BME280_temperature;BME280_humidity;BME280_pressure;Samples;Min_cycle;Max_cycle;Signal;HPM_P1;HPM_P2
2021/12/26 00:00:34;;;;;;;11.27;4.10;;;;;;;;;;5005105;28;20453;-81
2021/12/26 00:03:02;;;;;;;10.27;4.57;;;;;;;;;;5007550;28;20452;-80
2021/12/26 00:05:29;;;;;;;11.03;4.13;;;;;;;;;;5007252;28;20546;-80
2021/12/26 00:07:57;;;;;;;7.67;4.00;;;;;;;;;;5005439;28;20533;-80
2021/12/26 00:10:25;;;;;;;11.23;3.77;;;;;;;;;;5007658;28;20544;-80
2021/12/26 00:12:52;;;;;;;9.63;4.73;;;;;;;;;;5011137;28;20478;-81
2021/12/26 00:15:21;;;;;;;11.80;4.67;;;;;;;;;;5008506;28;20488;-82
2021/12/26 00:17:48;;;;;;;8.57;4.10;;;;;;;;;;5007172;28;20575;-82
2021/12/26 00:20:16;;;;;;;10.97;4.50;;;;;;;;;;5008118;28;20490;-82
2021/12/26 00:22:44;;;;;;;8.57;4.23;;;;;;;;;;5007021;28;20555;-81
2021/12/26 00:25:12;;;;;;;10.37;4.47;;;;;;;;;;5004774;28;20487;-81
2021/12/26 00:27:39;;;;;;;9.00;4.47;;;;;;;;;;5006049;28;20484;-81
2021/12/26 00:30:08;;;;;;;9.90;4.23;;;;;;;;;;5011175;28;20972;-81
2021/12/26 00:32:37;;;;;;;9.87;4.30;;;;;;;;;;5005581;28;20515;-82
2021/12/26 00:35:05;;;;;;;9.53;4.07;;;;;;;;;;5006361;28;20460;-82
2021/12/26 00:37:32;;;;;;;9.10;4.30;;;;;;;;;;5011138;28;20513;-81
2021/12/26 00:39:59;;;;;;;7.77;3.70;;;;;;;;;;5007737;28;21002;-82
2021/12/26 00:42:26;;;;;;;11.37;4.40;;;;;;;;;;5009459;28;20463;-81
2021/12/26 00:44:53;;;;;;;8.60;4.07;;;;;;;;;;5007275;28;20569;-82
2021/12/26 00:47:21;;;;;;;8.43;3.90;;;;;;;;;;5009205;28;20465;-83
2021/12/26 00:49:49;;;;;;;8.50;4.43;;;;;;;;;;5005979;28;20471;-82
2021/12/26 00:52:16;;;;;;;11.20;4.10;;;;;;;;;;5006150;28;20468;-83
2021/12/26 00:54:44;;;;;;;9.73;4.20;;;;;;;;;;5009547;28;20459;-82
2021/12/26 00:57:11;;;;;;;8.97;4.00;;;;;;;;;;5022110;28;20447;-82
2021/12/26 00:59:38;;;;;;;7.77;3.93;;;;;;;;;;5012914;28;20514;-82
2021/12/26 01:02:06;;;;;;;9.57;4.70;;;;;;;;;;5006258;28;20480;-83
2021/12/26 01:04:33;;;;;;;9.40;4.20;;;;;;;;;;5018315;28;20543;-82
2021/12/26 01:07:07;;;;;;;11.67;4.03;;;;;;;;;;5013872;28;20447;-83
2021/12/26 01:09:34;;;;;;;10.93;4.20;;;;;;;;;;5005889;28;20463;-84
2021/12/26 01:12:11;;;;;;;8.03;4.20;;;;;;;;;;5005660;28;20463;-81
2021/12/26 01:14:46;;;;;;;10.07;4.10;;;;;;;;;;5008488;28;20543;-82
2021/12/26 01:17:16;;;;;;;8.87;4.10;;;;;;;;;;5005245;28;20470;-83
2021/12/26 01:19:47;;;;;;;10.93;4.47;;;;;;;;;;5005036;28;20565;-82
2021/12/26 01:22:16;;;;;;;9.20;4.57;;;;;;;;;;5009269;28;20513;-83
2021/12/26 01:24:44;;;;;;;9.23;4.50;;;;;;;;;;5007692;28;20904;-82
2021/12/26 01:27:12;;;;;;;7.83;3.80;;;;;;;;;;5008512;28;20451;-81
2021/12/26 01:29:39;;;;;;;10.67;4.47;;;;;;;;;;5008738;28;20444;-81
2021/12/26 01:32:07;;;;;;;8.90;4.60;;;;;;;;;;5006686;28;20506;-82
2021/12/26 01:34:35;;;;;;;10.40;4.77;;;;;;;;;;5002999;28;20471;-82
2021/12/26 01:37:02;;;;;;;11.17;4.60;;;;;;;;;;5000200;28;20483;-81
2021/12/26 01:39:30;;;;;;;10.60;4.77;;;;;;;;;;4995640;28;20541;-82
2021/12/26 01:42:02;;;;;;;9.37;4.47;;;;;;;;;;4995305;28;20495;-81
2021/12/26 01:44:29;;;;;;;9.73;4.50;;;;;;;;;;4995540;28;20499;-82
2021/12/26 01:46:56;;;;;;;9.80;4.27;;;;;;;;;;4997354;28;20533;-82
2021/12/26 01:49:24;;;;;;;12.23;4.30;;;;;;;;;;4996560;28;20476;-82
2021/12/26 01:51:53;;;;;;;10.30;4.20;;;;;;;;;;4994113;28;21033;-82
2021/12/26 01:54:28;;;;;;;9.40;4.13;;;;;;;;;;4998415;28;20503;-82
2021/12/26 01:56:57;;;;;;;9.60;4.73;;;;;;;;;;4998130;28;20467;-83
2021/12/26 01:59:24;;;;;;;11.43;5.47;;;;;;;;;;4997421;28;20747;-83
2021/12/26 02:01:52;;;;;;;13.97;5.27;;;;;;;;;;4995481;28;20543;-82
2021/12/26 02:04:19;;;;;;;10.50;4.43;;;;;;;;;;4996736;28;20478;-83
2021/12/26 02:06:46;;;;;;;12.53;4.70;;;;;;;;;;5000333;28;20491;-82
2021/12/26 02:09:14;;;;;;;8.57;4.47;;;;;;;;;;4998059;28;21245;-82
2021/12/26 02:11:41;;;;;;;12.40;5.50;;;;;;;;;;4996765;28;20550;-81
2021/12/26 02:14:11;;;;;;;10.00;4.83;;;;;;;;;;5001434;28;20467;-81
2021/12/26 02:16:38;;;;;;;9.13;4.80;;;;;;;;;;5002276;28;20484;-82
2021/12/26 02:19:06;;;;;;;9.73;4.50;;;;;;;;;;5004764;28;21239;-82
2021/12/26 02:21:55;;;;;;;11.40;4.70;;;;;;;;;;5003679;28;20460;-83
2021/12/26 02:24:27;;;;;;;11.33;4.30;;;;;;;;;;5002628;28;21180;-82
2021/12/26 02:29:40;;;;;;;8.13;4.30;;;;;;;;;;5000396;28;20445;-80
2021/12/26 02:32:08;;;;;;;9.80;4.47;;;;;;;;;;5004025;28;20468;-81
2021/12/26 02:34:36;;;;;;;11.20;4.87;;;;;;;;;;5002415;28;20991;-81
2021/12/26 02:37:05;;;;;;;10.50;4.93;;;;;;;;;;4999642;28;20468;-81
2021/12/26 02:39:33;;;;;;;11.93;4.87;;;;;;;;;;4999553;28;20531;-81
2021/12/26 02:42:00;;;;;;;10.43;4.77;;;;;;;;;;5003486;28;20574;-82
2021/12/26 02:44:27;;;;;;;9.93;4.70;;;;;;;;;;4999815;28;20943;-81
2021/12/26 02:46:54;;;;;;;10.67;4.37;;;;;;;;;;5006315;28;20546;-82
2021/12/26 02:49:24;;;;;;;9.40;4.73;;;;;;;;;;5004921;28;20955;-82
2021/12/26 02:51:52;;;;;;;9.20;4.37;;;;;;;;;;5006737;28;20465;-81
2021/12/26 02:54:23;;;;;;;10.57;4.43;;;;;;;;;;5004586;28;20455;-82
2021/12/26 02:56:51;;;;;;;11.30;4.77;;;;;;;;;;5005110;28;20563;-81
2021/12/26 02:59:18;;;;;;;14.00;5.07;;;;;;;;;;5004507;28;20715;-81
2021/12/26 03:01:45;;;;;;;13.20;4.50;;;;;;;;;;5004586;28;20462;-81
2021/12/26 03:04:12;;;;;;;9.20;4.40;;;;;;;;;;5004298;28;20795;-80
2021/12/26 03:06:47;;;;;;;12.37;4.90;;;;;;;;;;5006570;28;20463;-81
2021/12/26 03:09:14;;;;;;;12.67;4.70;;;;;;;;;;5005374;28;20577;-81
2021/12/26 03:11:45;;;;;;;9.37;4.87;;;;;;;;;;5008447;28;20554;-81
2021/12/26 03:14:12;;;;;;;9.33;4.33;;;;;;;;;;5001085;28;20463;-80
2021/12/26 03:16:47;;;;;;;10.20;4.50;;;;;;;;;;5005282;28;20570;-80
2021/12/26 03:19:14;;;;;;;8.53;4.17;;;;;;;;;;5001678;28;21011;-80
2021/12/26 03:21:42;;;;;;;8.37;4.17;;;;;;;;;;5005968;28;21015;-81
2021/12/26 03:24:09;;;;;;;9.57;4.57;;;;;;;;;;5001010;28;20514;-81
2021/12/26 03:26:36;;;;;;;8.13;4.03;;;;;;;;;;4999078;28;20462;-81
2021/12/26 03:29:05;;;;;;;9.60;4.57;;;;;;;;;;5005651;28;20522;-83
2021/12/26 03:31:32;;;;;;;10.03;4.73;;;;;;;;;;5008482;28;20504;-81
2021/12/26 03:33:59;;;;;;;9.23;4.33;;;;;;;;;;5007863;28;20462;-81
2021/12/26 03:36:26;;;;;;;15.90;5.27;;;;;;;;;;5011877;28;20495;-82
2021/12/26 03:38:54;;;;;;;10.07;4.60;;;;;;;;;;5007439;28;20561;-82
2021/12/26 03:41:22;;;;;;;10.20;4.77;;;;;;;;;;5029515;28;20454;-79
2021/12/26 03:43:50;;;;;;;9.50;4.80;;;;;;;;;;5007841;28;20459;-81
2021/12/26 03:46:18;;;;;;;8.37;4.23;;;;;;;;;;5010944;28;20483;-81
2021/12/26 03:48:45;;;;;;;10.47;4.40;;;;;;;;;;5011483;28;20489;-83
2021/12/26 03:51:13;;;;;;;10.47;4.43;;;;;;;;;;5008019;28;20459;-80
2021/12/26 03:53:40;;;;;;;10.50;4.83;;;;;;;;;;5008632;28;20539;-83
2021/12/26 03:56:07;;;;;;;10.87;4.60;;;;;;;;;;5009178;28;20559;-82
2021/12/26 03:58:34;;;;;;;9.50;4.90;;;;;;;;;;5008379;28;21009;-83
2021/12/26 04:01:01;;;;;;;14.13;5.00;;;;;;;;;;5008194;28;21099;-83
2021/12/26 04:03:30;;;;;;;6.53;4.07;;;;;;;;;;5005883;28;20989;-82
2021/12/26 04:05:57;;;;;;;10.37;4.67;;;;;;;;;;5010905;28;20483;-79
2021/12/26 04:08:24;;;;;;;12.30;4.80;;;;;;;;;;5013949;28;20582;-81
2021/12/26 04:10:51;;;;;;;11.23;4.90;;;;;;;;;;5009017;28;20526;-83
2021/12/26 04:13:19;;;;;;;12.53;5.67;;;;;;;;;;5009728;28;20468;-81
2021/12/26 04:15:46;;;;;;;9.90;4.83;;;;;;;;;;5007834;28;20468;-81
2021/12/26 04:18:13;;;;;;;10.40;4.60;;;;;;;;;;5005791;28;20497;-82
2021/12/26 04:20:42;;;;;;;8.93;4.47;;;;;;;;;;5007898;28;20554;-83
2021/12/26 04:23:09;;;;;;;10.53;4.50;;;;;;;;;;5003503;28;20459;-82
2021/12/26 04:25:37;;;;;;;11.47;5.27;;;;;;;;;;5008959;28;20488;-81
2021/12/26 04:28:04;;;;;;;11.87;5.13;;;;;;;;;;5003853;28;20590;-82
2021/12/26 04:30:31;;;;;;;10.70;4.87;;;;;;;;;;5006631;28;20979;-82
2021/12/26 04:32:58;;;;;;;11.63;5.10;;;;;;;;;;5009501;28;20527;-83
2021/12/26 04:35:26;;;;;;;11.07;4.97;;;;;;;;;;5007629;28;20553;-82
2021/12/26 04:37:54;;;;;;;12.07;4.63;;;;;;;;;;5001342;28;20512;-83
2021/12/26 04:40:22;;;;;;;10.27;4.93;;;;;;;;;;5001490;28;20527;-83
2021/12/26 04:42:50;;;;;;;8.93;4.67;;;;;;;;;;5010395;28;20973;-82
2021/12/26 04:45:18;;;;;;;11.20;4.73;;;;;;;;;;5005272;28;21051;-83
2021/12/26 04:47:45;;;;;;;11.93;4.90;;;;;;;;;;5007499;28;20490;-82
2021/12/26 04:50:15;;;;;;;9.87;5.00;;;;;;;;;;5006261;28;20467;-83
2021/12/26 04:52:43;;;;;;;10.17;4.87;;;;;;;;;;5006528;28;20625;-82
2021/12/26 04:55:12;;;;;;;9.70;4.50;;;;;;;;;;5005879;28;20448;-82
2021/12/26 04:57:40;;;;;;;12.90;5.00;;;;;;;;;;5013268;28;20472;-83
2021/12/26 05:00:07;;;;;;;11.00;4.87;;;;;;;;;;5014793;28;20563;-83
2021/12/26 05:02:36;;;;;;;10.57;5.00;;;;;;;;;;5010861;28;20495;-83
2021/12/26 05:05:04;;;;;;;10.63;4.73;;;;;;;;;;5014333;28;21026;-83
2021/12/26 05:07:31;;;;;;;11.03;4.93;;;;;;;;;;5010375;28;20497;-84
2021/12/26 05:09:59;;;;;;;9.47;4.90;;;;;;;;;;5010961;28;20450;-81
2021/12/26 05:12:27;;;;;;;10.47;4.97;;;;;;;;;;5010962;28;20467;-83
2021/12/26 05:14:54;;;;;;;10.23;4.70;;;;;;;;;;5010543;28;21481;-82
2021/12/26 05:17:22;;;;;;;10.80;5.10;;;;;;;;;;5010116;28;20903;-83
2021/12/26 05:19:49;;;;;;;12.53;5.33;;;;;;;;;;5009571;28;20486;-84
2021/12/26 05:22:17;;;;;;;12.63;5.30;;;;;;;;;;5009578;28;20960;-83
2021/12/26 05:24:44;;;;;;;10.67;4.97;;;;;;;;;;5010603;28;20452;-83
2021/12/26 05:27:11;;;;;;;11.83;5.43;;;;;;;;;;5010125;28;20899;-82
2021/12/26 05:29:40;;;;;;;10.90;5.03;;;;;;;;;;5009735;28;20489;-82
2021/12/26 05:32:07;;;;;;;11.17;5.87;;;;;;;;;;5008545;28;20514;-82
2021/12/26 05:34:35;;;;;;;15.93;5.63;;;;;;;;;;5008367;28;20976;-83
2021/12/26 05:37:02;;;;;;;10.17;4.97;;;;;;;;;;5006600;28;20553;-82
2021/12/26 05:39:29;;;;;;;11.60;5.37;;;;;;;;;;5010652;28;20515;-82
2021/12/26 05:41:56;;;;;;;9.83;5.07;;;;;;;;;;5008007;28;21047;-82
2021/12/26 05:44:24;;;;;;;12.03;4.80;;;;;;;;;;5004827;28;20717;-83
2021/12/26 05:46:52;;;;;;;11.07;5.10;;;;;;;;;;5006158;28;20492;-83
2021/12/26 05:49:19;;;;;;;8.87;4.80;;;;;;;;;;5004412;28;20567;-84
2021/12/26 05:51:47;;;;;;;12.57;5.23;;;;;;;;;;5011538;28;20495;-83
2021/12/26 05:54:14;;;;;;;11.10;5.13;;;;;;;;;;5012154;28;20502;-82
2021/12/26 05:56:41;;;;;;;12.27;5.07;;;;;;;;;;5008222;28;20494;-81
2021/12/26 05:59:08;;;;;;;12.10;5.40;;;;;;;;;;5006754;28;20495;-81
2021/12/26 06:01:36;;;;;;;14.83;5.60;;;;;;;;;;5007747;28;20523;-81
2021/12/26 06:04:04;;;;;;;10.20;5.23;;;;;;;;;;5005147;28;20490;-80
2021/12/26 06:06:31;;;;;;;10.57;5.00;;;;;;;;;;5006005;28;20482;-81
2021/12/26 06:08:59;;;;;;;11.33;5.00;;;;;;;;;;5010413;28;20890;-79
2021/12/26 06:11:26;;;;;;;11.43;4.87;;;;;;;;;;5003028;28;20502;-81
2021/12/26 06:13:53;;;;;;;12.83;5.63;;;;;;;;;;5005543;28;20540;-81
2021/12/26 06:16:20;;;;;;;15.07;5.30;;;;;;;;;;5009466;28;20559;-82
2021/12/26 06:18:47;;;;;;;10.80;5.20;;;;;;;;;;5014070;28;20517;-82
2021/12/26 06:21:16;;;;;;;12.07;5.33;;;;;;;;;;5015542;28;20915;-83
2021/12/26 06:23:50;;;;;;;13.37;5.57;;;;;;;;;;5025821;28;20495;-80
2021/12/26 06:26:17;;;;;;;11.17;4.83;;;;;;;;;;5019898;28;21013;-81
2021/12/26 06:28:44;;;;;;;12.63;5.27;;;;;;;;;;5012137;28;20864;-82
2021/12/26 06:31:11;;;;;;;10.43;5.30;;;;;;;;;;5012380;28;20471;-80
2021/12/26 06:33:39;;;;;;;12.70;5.47;;;;;;;;;;5012731;28;20454;-80
2021/12/26 06:36:07;;;;;;;11.07;5.40;;;;;;;;;;5016868;28;20497;-83
2021/12/26 06:38:35;;;;;;;10.73;4.70;;;;;;;;;;5014225;28;20514;-82
2021/12/26 06:41:03;;;;;;;12.60;5.87;;;;;;;;;;5010628;28;20834;-82
2021/12/26 06:43:30;;;;;;;11.53;5.73;;;;;;;;;;5013113;28;20483;-81
2021/12/26 06:45:57;;;;;;;15.40;6.03;;;;;;;;;;5014373;28;21033;-82
2021/12/26 06:48:25;;;;;;;9.77;4.83;;;;;;;;;;5010836;28;20483;-83
2021/12/26 06:50:52;;;;;;;11.50;5.47;;;;;;;;;;5014011;28;20462;-81
2021/12/26 06:53:20;;;;;;;15.53;6.67;;;;;;;;;;5011198;28;20689;-83
2021/12/26 06:55:49;;;;;;;12.83;5.47;;;;;;;;;;5014077;28;20538;-83
2021/12/26 06:58:17;;;;;;;10.73;5.40;;;;;;;;;;5014018;28;20904;-82
2021/12/26 07:00:45;;;;;;;12.97;5.87;;;;;;;;;;5016345;28;20500;-83
2021/12/26 07:03:12;;;;;;;11.80;5.80;;;;;;;;;;5010336;28;20546;-81
2021/12/26 07:05:39;;;;;;;14.83;6.10;;;;;;;;;;5008279;28;20489;-83
2021/12/26 07:08:07;;;;;;;11.90;5.63;;;;;;;;;;5009917;28;20922;-81
2021/12/26 07:10:34;;;;;;;12.40;5.50;;;;;;;;;;5016941;28;21269;-84
2021/12/26 07:13:03;;;;;;;14.10;6.03;;;;;;;;;;5009821;28;20488;-84
2021/12/26 07:15:30;;;;;;;13.17;5.53;;;;;;;;;;5010877;28;20546;-83
2021/12/26 07:17:57;;;;;;;10.33;5.27;;;;;;;;;;5013228;28;20467;-83
2021/12/26 07:20:25;;;;;;;14.20;6.33;;;;;;;;;;5010396;28;20521;-83
2021/12/26 07:22:52;;;;;;;12.70;5.73;;;;;;;;;;5007941;28;20448;-84
2021/12/26 07:25:19;;;;;;;13.93;5.40;;;;;;;;;;5009173;28;20616;-81
2021/12/26 07:27:46;;;;;;;12.57;5.40;;;;;;;;;;5008385;28;20565;-82
2021/12/26 07:30:15;;;;;;;13.77;5.83;;;;;;;;;;5010931;28;20545;-81
2021/12/26 07:32:42;;;;;;;11.40;6.03;;;;;;;;;;5008141;28;20469;-80
2021/12/26 07:35:10;;;;;;;13.30;6.30;;;;;;;;;;5006479;28;20919;-82
2021/12/26 07:37:37;;;;;;;18.23;6.40;;;;;;;;;;5009774;28;20510;-81
2021/12/26 07:40:04;;;;;;;11.37;5.90;;;;;;;;;;5007295;28;20488;-80
2021/12/26 07:42:32;;;;;;;14.13;6.37;;;;;;;;;;5004729;28;20455;-81
2021/12/26 07:44:59;;;;;;;13.03;6.47;;;;;;;;;;5007958;28;20459;-81
2021/12/26 07:47:28;;;;;;;17.57;6.90;;;;;;;;;;5006938;28;20529;-80
2021/12/26 07:49:55;;;;;;;11.47;5.83;;;;;;;;;;5008843;28;20486;-81
2021/12/26 07:52:27;;;;;;;12.73;6.40;;;;;;;;;;5013369;28;20533;-81
2021/12/26 07:54:55;;;;;;;14.67;6.13;;;;;;;;;;5005445;28;20451;-80
2021/12/26 07:57:22;;;;;;;12.43;5.50;;;;;;;;;;5013029;28;20470;-81
2021/12/26 07:59:49;;;;;;;11.57;5.60;;;;;;;;;;5005138;28;20960;-80
2021/12/26 08:02:19;;;;;;;12.63;5.90;;;;;;;;;;5006652;28;20543;-81
2021/12/26 08:04:48;;;;;;;15.67;6.60;;;;;;;;;;5005002;28;20842;-80
2021/12/26 08:07:15;;;;;;;14.47;6.57;;;;;;;;;;5010474;28;20547;-80
2021/12/26 08:09:42;;;;;;;12.90;6.20;;;;;;;;;;5009359;28;20891;-81
2021/12/26 08:12:10;;;;;;;13.87;6.23;;;;;;;;;;5012851;28;20455;-80
2021/12/26 08:14:37;;;;;;;13.37;6.83;;;;;;;;;;5025359;28;20488;-81
2021/12/26 08:17:05;;;;;;;15.03;6.13;;;;;;;;;;5025797;28;20528;-81
2021/12/26 08:19:32;;;;;;;13.87;6.33;;;;;;;;;;5021275;28;20463;-81
2021/12/26 08:22:01;;;;;;;16.20;6.90;;;;;;;;;;5026449;28;20477;-81
2021/12/26 08:24:28;;;;;;;18.37;7.10;;;;;;;;;;5023258;28;20483;-81
2021/12/26 08:26:55;;;;;;;15.83;7.77;;;;;;;;;;5021728;28;20487;-81
2021/12/26 08:29:23;;;;;;;15.57;7.03;;;;;;;;;;5029284;28;20475;-81
2021/12/26 08:31:53;;;;;;;15.77;7.40;;;;;;;;;;5025070;28;20472;-80
2021/12/26 08:34:22;;;;;;;15.07;7.10;;;;;;;;;;5026013;28;20466;-80
2021/12/26 08:36:50;;;;;;;17.77;8.60;;;;;;;;;;5017264;28;20467;-81
2021/12/26 08:39:21;;;;;;;16.00;7.17;;;;;;;;;;5015628;28;20498;-81
2021/12/26 08:41:49;;;;;;;14.60;7.10;;;;;;;;;;5016084;28;20454;-81
2021/12/26 08:44:16;;;;;;;15.57;7.13;;;;;;;;;;5012976;28;21025;-80
2021/12/26 08:46:44;;;;;;;13.73;6.90;;;;;;;;;;5018205;28;20882;-80
2021/12/26 08:49:11;;;;;;;14.13;7.27;;;;;;;;;;5009987;28;20619;-80
2021/12/26 08:51:38;;;;;;;15.33;6.97;;;;;;;;;;5007968;28;20479;-80
2021/12/26 08:54:06;;;;;;;18.47;7.73;;;;;;;;;;5012096;28;20542;-81
2021/12/26 08:56:35;;;;;;;15.03;7.17;;;;;;;;;;5013580;28;20448;-82
2021/12/26 08:59:02;;;;;;;16.00;7.23;;;;;;;;;;5012636;28;20488;-81
2021/12/26 09:01:29;;;;;;;16.27;7.43;;;;;;;;;;5014663;28;20499;-82
2021/12/26 09:03:56;;;;;;;19.07;7.67;;;;;;;;;;5014953;28;20506;-81
2021/12/26 09:06:24;;;;;;;16.23;7.40;;;;;;;;;;5014488;28;20480;-82
2021/12/26 09:08:51;;;;;;;16.87;7.33;;;;;;;;;;5015409;28;20830;-80
2021/12/26 09:11:18;;;;;;;19.80;7.70;;;;;;;;;;5018035;28;20491;-81
2021/12/26 09:13:47;;;;;;;18.17;8.03;;;;;;;;;;5006995;28;20488;-82
2021/12/26 09:16:14;;;;;;;17.40;7.90;;;;;;;;;;5006317;28;20556;-81
2021/12/26 09:18:42;;;;;;;15.40;7.47;;;;;;;;;;5003925;28;20490;-80
2021/12/26 09:21:09;;;;;;;17.37;8.47;;;;;;;;;;5011017;28;20468;-81
2021/12/26 09:23:36;;;;;;;14.80;7.87;;;;;;;;;;5009300;28;20542;-81
2021/12/26 09:26:03;;;;;;;16.63;8.23;;;;;;;;;;5016212;28;20581;-81
2021/12/26 09:28:35;;;;;;;17.23;7.97;;;;;;;;;;5014798;28;20998;-81
2021/12/26 09:31:04;;;;;;;17.03;7.63;;;;;;;;;;5002988;28;21014;-82
2021/12/26 09:33:31;;;;;;;15.63;7.87;;;;;;;;;;5008419;28;20468;-82
2021/12/26 09:36:00;;;;;;;20.47;9.00;;;;;;;;;;5015316;28;20515;-82
2021/12/26 09:38:28;;;;;;;16.97;7.80;;;;;;;;;;5013333;28;20537;-82
2021/12/26 09:40:56;;;;;;;14.20;7.63;;;;;;;;;;5012781;28;21024;-81
2021/12/26 09:43:23;;;;;;;16.97;8.57;;;;;;;;;;5012734;28;20471;-82
2021/12/26 09:45:51;;;;;;;20.43;7.80;;;;;;;;;;5009790;28;20816;-82
2021/12/26 09:48:20;;;;;;;17.40;8.47;;;;;;;;;;5011495;28;20471;-82
2021/12/26 09:50:48;;;;;;;17.17;7.97;;;;;;;;;;5008722;28;20542;-81
2021/12/26 09:53:16;;;;;;;18.27;8.33;;;;;;;;;;5009191;28;20559;-82
2021/12/26 09:55:43;;;;;;;17.90;8.40;;;;;;;;;;5014065;28;21011;-82
2021/12/26 09:58:10;;;;;;;15.67;8.23;;;;;;;;;;5009210;28;20486;-82
2021/12/26 10:00:39;;;;;;;19.17;8.23;;;;;;;;;;5010192;28;20459;-81
2021/12/26 10:03:17;;;;;;;16.70;7.50;;;;;;;;;;5008121;28;20474;-82
2021/12/26 10:06:03;;;;;;;18.87;8.57;;;;;;;;;;5008608;28;20811;-82
2021/12/26 10:08:30;;;;;;;16.27;8.17;;;;;;;;;;5004084;28;20553;-82
2021/12/26 10:11:08;;;;;;;20.20;8.53;;;;;;;;;;5007555;28;20459;-81
2021/12/26 10:13:39;;;;;;;17.10;8.27;;;;;;;;;;5007611;28;20461;-82
2021/12/26 10:16:07;;;;;;;16.97;7.97;;;;;;;;;;5008897;28;20496;-81
2021/12/26 10:18:39;;;;;;;16.00;7.50;;;;;;;;;;5008128;28;20559;-82
2021/12/26 10:21:21;;;;;;;19.73;7.90;;;;;;;;;;5023291;28;20616;-81
2021/12/26 10:23:50;;;;;;;15.03;7.20;;;;;;;;;;5023097;28;20440;-82
2021/12/26 10:26:20;;;;;;;15.23;7.13;;;;;;;;;;5027549;28;20447;-81
2021/12/26 10:29:02;;;;;;;16.93;8.23;;;;;;;;;;5012902;28;20491;-81
2021/12/26 10:31:30;;;;;;;20.40;8.33;;;;;;;;;;5008309;28;20490;-81
2021/12/26 10:33:59;;;;;;;19.13;9.27;;;;;;;;;;5008749;28;20204;-81
2021/12/26 10:42:45;;;;;;;16.30;7.97;;;;;;;;;;5006964;28;20723;-83
2021/12/26 10:45:13;;;;;;;18.60;8.27;;;;;;;;;;5002483;28;20486;-82
2021/12/26 10:47:41;;;;;;;17.97;8.40;;;;;;;;;;5003510;28;20991;-83
2021/12/26 10:50:09;;;;;;;18.73;8.03;;;;;;;;;;5008284;28;20468;-82
2021/12/26 10:52:37;;;;;;;18.27;8.53;;;;;;;;;;5011148;28;20247;-82
2021/12/26 10:55:06;;;;;;;16.20;7.87;;;;;;;;;;5007756;28;20206;-82
2021/12/26 10:57:35;;;;;;;18.80;8.47;;;;;;;;;;5011401;28;20223;-81
2021/12/26 11:00:12;;;;;;;17.17;7.93;;;;;;;;;;5008087;28;20484;-82
2021/12/26 11:02:41;;;;;;;16.90;7.97;;;;;;;;;;5007514;28;20276;-82
2021/12/26 11:05:09;;;;;;;19.80;8.20;;;;;;;;;;5011073;28;20460;-83
2021/12/26 11:07:41;;;;;;;18.30;8.47;;;;;;;;;;5009422;28;20602;-82
2021/12/26 11:10:20;;;;;;;21.00;9.10;;;;;;;;;;5006191;28;20209;-82
2021/12/26 11:12:52;;;;;;;18.77;8.53;;;;;;;;;;5009100;28;20290;-83
2021/12/26 11:15:24;;;;;;;21.50;9.37;;;;;;;;;;5009832;28;20451;-82
2021/12/26 11:17:52;;;;;;;19.97;8.67;;;;;;;;;;5005016;28;20471;-82
2021/12/26 11:20:20;;;;;;;21.87;9.70;;;;;;;;;;5009553;28;20464;-81
2021/12/26 11:22:48;;;;;;;17.70;8.77;;;;;;;;;;5011431;28;20583;-82
2021/12/26 11:25:15;;;;;;;28.13;8.97;;;;;;;;;;5009471;28;20933;-83
2021/12/26 11:27:42;;;;;;;22.60;9.27;;;;;;;;;;5013778;28;20494;-82
2021/12/26 11:30:10;;;;;;;21.63;10.17;;;;;;;;;;5013049;28;20969;-82
2021/12/26 11:32:39;;;;;;;21.83;10.20;;;;;;;;;;5008755;28;20447;-82
2021/12/26 11:35:07;;;;;;;27.03;11.47;;;;;;;;;;5008841;28;20221;-83
2021/12/26 11:37:35;;;;;;;19.97;10.03;;;;;;;;;;5007207;28;20653;-82
2021/12/26 11:40:03;;;;;;;20.03;9.93;;;;;;;;;;5005886;28;20948;-83
2021/12/26 11:43:00;;;;;;;18.97;8.63;;;;;;;;;;5007823;28;20227;-82
2021/12/26 11:45:31;;;;;;;18.60;9.30;;;;;;;;;;5005269;28;21239;-83
2021/12/26 11:48:23;;;;;;;19.27;9.60;;;;;;;;;;5002741;28;20303;-82
2021/12/26 11:50:55;;;;;;;22.83;9.73;;;;;;;;;;5005753;28;20468;-82
2021/12/26 11:53:33;;;;;;;21.53;9.93;;;;;;;;;;5015186;28;20211;-83
2021/12/26 11:56:09;;;;;;;21.57;9.17;;;;;;;;;;5015486;28;20464;-82
2021/12/26 11:58:42;;;;;;;21.00;9.50;;;;;;;;;;5012935;28;20223;-83
2021/12/26 12:01:14;;;;;;;20.83;9.33;;;;;;;;;;5025217;28;20435;-82
2021/12/26 12:03:43;;;;;;;25.53;9.90;;;;;;;;;;5031335;28;20436;-82
2021/12/26 12:06:24;;;;;;;22.10;9.87;;;;;;;;;;5023840;28;20534;-82
2021/12/26 12:08:51;;;;;;;24.37;10.90;;;;;;;;;;5015682;28;20231;-84
2021/12/26 12:11:18;;;;;;;26.50;11.03;;;;;;;;;;5015710;28;20444;-85
2021/12/26 12:13:47;;;;;;;25.37;11.10;;;;;;;;;;5009536;28;20479;-84
2021/12/26 12:16:28;;;;;;;24.03;10.83;;;;;;;;;;5012504;28;20279;-83
2021/12/26 12:18:57;;;;;;;22.13;10.17;;;;;;;;;;5006249;28;20514;-83
2021/12/26 12:21:26;;;;;;;23.83;10.83;;;;;;;;;;5014723;28;20605;-84
2021/12/26 12:23:58;;;;;;;25.10;10.80;;;;;;;;;;5013186;28;20478;-83
2021/12/26 12:26:53;;;;;;;24.27;11.20;;;;;;;;;;5005475;28;20468;-83
2021/12/26 12:29:38;;;;;;;22.63;10.57;;;;;;;;;;4972733;28;20232;-84
2021/12/26 12:32:16;;;;;;;25.67;11.33;;;;;;;;;;5016798;28;21023;-84
2021/12/26 12:34:49;;;;;;;22.43;10.70;;;;;;;;;;5011108;28;21123;-85
2021/12/26 12:37:27;;;;;;;26.20;11.70;;;;;;;;;;5010970;28;20484;-84
2021/12/26 12:40:06;;;;;;;28.23;11.30;;;;;;;;;;5015800;28;20479;-85
2021/12/26 12:42:34;;;;;;;24.53;11.50;;;;;;;;;;5011285;28;20458;-82
2021/12/26 12:45:03;;;;;;;26.67;12.30;;;;;;;;;;5008762;28;20499;-82
2021/12/26 12:47:30;;;;;;;25.93;12.70;;;;;;;;;;5003521;28;20496;-83
2021/12/26 12:50:03;;;;;;;23.57;11.60;;;;;;;;;;5004490;28;20562;-82
2021/12/26 12:52:37;;;;;;;24.93;11.53;;;;;;;;;;5002935;28;20532;-82
2021/12/26 12:55:05;;;;;;;25.50;12.60;;;;;;;;;;5009750;28;20205;-82
2021/12/26 12:57:36;;;;;;;28.67;12.67;;;;;;;;;;5008335;28;20565;-82
2021/12/26 13:00:03;;;;;;;36.07;13.97;;;;;;;;;;5008185;28;20483;-82
2021/12/26 13:02:34;;;;;;;34.90;14.83;;;;;;;;;;5001799;28;20542;-82
2021/12/26 13:05:03;;;;;;;24.07;10.83;;;;;;;;;;5004069;28;20228;-82
2021/12/26 13:07:31;;;;;;;30.40;12.43;;;;;;;;;;5003995;28;20479;-82
2021/12/26 13:10:00;;;;;;;24.87;11.03;;;;;;;;;;5011845;28;20451;-83
2021/12/26 13:12:27;;;;;;;27.60;11.63;;;;;;;;;;5007960;28;20548;-82
2021/12/26 13:14:55;;;;;;;26.97;11.10;;;;;;;;;;5012260;28;20212;-83
2021/12/26 13:17:27;;;;;;;23.63;11.53;;;;;;;;;;5008013;28;20550;-82
2021/12/26 13:19:56;;;;;;;31.20;12.67;;;;;;;;;;5008628;28;20200;-83
2021/12/26 13:22:26;;;;;;;26.50;11.43;;;;;;;;;;5014427;28;20467;-82
2021/12/26 13:24:56;;;;;;;29.50;11.67;;;;;;;;;;5007219;28;21091;-83
2021/12/26 13:27:23;;;;;;;27.30;11.10;;;;;;;;;;5008291;28;20480;-83
2021/12/26 13:29:52;;;;;;;27.23;11.90;;;;;;;;;;5011824;28;20534;-82
2021/12/26 13:32:19;;;;;;;30.60;12.00;;;;;;;;;;5008984;28;20250;-83
2021/12/26 13:34:53;;;;;;;35.10;13.33;;;;;;;;;;5005698;28;20558;-83
2021/12/26 13:37:20;;;;;;;35.47;13.67;;;;;;;;;;5009303;28;20475;-84
2021/12/26 13:39:55;;;;;;;26.33;12.63;;;;;;;;;;5017751;28;20244;-83
2021/12/26 13:42:22;;;;;;;26.27;12.07;;;;;;;;;;5026060;28;20453;-82
2021/12/26 13:44:50;;;;;;;26.20;12.07;;;;;;;;;;5028522;28;20211;-82
2021/12/26 13:47:17;;;;;;;35.90;13.47;;;;;;;;;;5012795;28;20838;-83
2021/12/26 13:49:45;;;;;;;40.37;14.07;;;;;;;;;;5005978;28;20531;-83
2021/12/26 13:52:17;;;;;;;28.40;11.70;;;;;;;;;;5000399;28;20514;-82
2021/12/26 13:54:49;;;;;;;25.93;11.73;;;;;;;;;;5006694;28;20451;-82
2021/12/26 13:57:23;;;;;;;29.93;12.60;;;;;;;;;;5005284;28;21022;-83
2021/12/26 13:59:51;;;;;;;29.23;12.27;;;;;;;;;;5010443;28;20459;-83
2021/12/26 14:02:19;;;;;;;30.50;12.83;;;;;;;;;;5005946;28;21052;-83
2021/12/26 14:04:47;;;;;;;31.80;13.23;;;;;;;;;;5005957;28;20466;-82
2021/12/26 14:07:16;;;;;;;36.77;14.90;;;;;;;;;;4996542;28;20466;-82
2021/12/26 14:09:44;;;;;;;37.00;14.47;;;;;;;;;;5000010;28;20586;-82
2021/12/26 14:15:24;;;;;;;33.87;14.03;;;;;;;;;;5116769;27;20607;-81
2021/12/26 14:17:58;;;;;;;34.97;14.77;;;;;;;;;;5096831;28;20464;-80
2021/12/26 14:20:26;;;;;;;28.47;12.10;;;;;;;;;;5101705;28;20464;-81
2021/12/26 14:22:55;;;;;;;39.70;14.57;;;;;;;;;;5083014;28;20979;-81
2021/12/26 14:25:23;;;;;;;33.60;13.90;;;;;;;;;;5085267;28;20451;-81
2021/12/26 14:27:50;;;;;;;38.53;14.10;;;;;;;;;;5084681;28;20555;-82
2021/12/26 14:30:19;;;;;;;35.93;14.37;;;;;;;;;;5081873;28;20467;-81
2021/12/26 14:33:01;;;;;;;34.83;14.10;;;;;;;;;;5089610;28;20487;-82
2021/12/26 14:35:31;;;;;;;36.13;13.90;;;;;;;;;;5085084;28;20444;-82
2021/12/26 14:38:11;;;;;;;35.53;14.40;;;;;;;;;;5096419;28;20448;-79
2021/12/26 14:40:49;;;;;;;40.53;14.77;;;;;;;;;;5097084;28;20259;-82
2021/12/26 14:43:17;;;;;;;38.03;14.43;;;;;;;;;;5087137;28;20443;-81
2021/12/26 14:45:48;;;;;;;37.83;14.93;;;;;;;;;;5083364;28;20456;-81
2021/12/26 14:48:26;;;;;;;39.00;15.63;;;;;;;;;;5088520;28;20221;-81
2021/12/26 14:53:35;;;;;;;34.97;15.13;;;;;;;;;;5085995;28;20567;-81